createdAt,value
2023-02-27T00:00:26.257Z,1.00
2023-02-27T00:03:31.215Z,1.33
2023-02-27T00:06:36.343Z,1.17
2023-02-27T00:09:41.924Z,1.20
2023-02-27T00:12:46.343Z,1.20
2023-02-27T00:15:51.822Z,1.17
2023-02-27T00:18:59.640Z,1.15
2023-02-27T00:22:04.312Z,1.23
2023-02-27T00:25:10.484Z,1.05
2023-02-27T00:28:15.732Z,1.30
2023-02-27T00:31:20.153Z,1.60
2023-02-27T00:34:24.508Z,1.42
2023-02-27T00:37:30.604Z,1.42
2023-02-27T00:40:36.173Z,1.20
2023-02-27T00:43:40.960Z,1.15
2023-02-27T00:46:45.457Z,1.40
2023-02-27T00:49:49.970Z,1.20
2023-02-27T00:52:54.428Z,1.20
2023-02-27T00:55:59.134Z,0.98
2023-02-27T00:59:03.748Z,1.10
2023-02-27T01:02:08.458Z,1.20
2023-02-27T01:05:13.045Z,1.08
2023-02-27T01:08:17.777Z,1.38
2023-02-27T01:11:22.831Z,1.10
2023-02-27T01:14:27.760Z,1.25
2023-02-27T01:17:33.070Z,1.20
2023-02-27T01:20:38.218Z,1.25
2023-02-27T01:23:42.924Z,1.20
2023-02-27T01:26:48.364Z,1.08
2023-02-27T01:29:53.105Z,1.17
2023-02-27T01:32:57.870Z,1.30
2023-02-27T01:36:02.650Z,1.20
2023-02-27T01:39:07.698Z,1.13
2023-02-27T01:42:27.032Z,1.45
2023-02-27T01:45:42.157Z,1.13
2023-02-27T01:48:47.072Z,2.40
2023-02-27T01:52:01.989Z,1.13
2023-02-27T01:55:08.846Z,1.15
2023-02-27T01:58:14.377Z,1.38
2023-02-27T02:01:20.462Z,1.20
2023-02-27T02:04:33.379Z,1.30
2023-02-27T02:07:39.746Z,1.30
2023-02-27T02:10:45.746Z,1.20
2023-02-27T02:13:56.161Z,1.20
2023-02-27T02:17:26.817Z,1.23
2023-02-27T02:20:53.300Z,1.40
2023-02-27T02:24:15.965Z,1.50
2023-02-27T02:27:42.410Z,1.67
2023-02-27T02:31:11.198Z,1.30
2023-02-27T02:34:43.542Z,1.40
2023-02-27T02:38:06.677Z,1.15
2023-02-27T02:41:37.798Z,1.30
2023-02-27T02:45:04.065Z,1.30
2023-02-27T02:48:51.319Z,1.27
2023-02-27T02:52:39.173Z,1.33
2023-02-27T02:56:00.304Z,1.55
2023-02-27T02:59:41.703Z,1.50
2023-02-27T03:02:53.709Z,1.27
2023-02-27T03:06:08.615Z,1.27
2023-02-27T03:09:26.316Z,1.58
2023-02-27T03:12:33.599Z,1.92
2023-02-27T03:15:55.140Z,1.30
2023-02-27T03:19:05.622Z,1.30
2023-02-27T03:22:21.511Z,1.40
2023-02-27T03:25:35.027Z,1.58
2023-02-27T03:29:02.737Z,1.45
2023-02-27T03:32:17.673Z,1.40
2023-02-27T03:35:27.691Z,1.45
2023-02-27T03:38:58.536Z,1.67
2023-02-27T03:42:32.262Z,1.58
2023-02-27T03:46:10.164Z,1.70
2023-02-27T03:49:14.984Z,1.70
2023-02-27T03:52:22.330Z,1.67
2023-02-27T03:55:33.620Z,1.75
2023-02-27T03:58:38.334Z,1.52
2023-02-27T04:01:44.484Z,1.25
2023-02-27T04:04:49.321Z,1.60
2023-02-27T04:09:12.297Z,1.90
2023-02-27T04:13:04.590Z,1.40
2023-02-27T04:16:33.392Z,1.80
2023-02-27T04:19:58.026Z,1.70
2023-02-27T04:24:00.061Z,1.77
2023-02-27T04:27:35.309Z,1.38
2023-02-27T04:31:08.628Z,1.50
2023-02-27T04:34:19.464Z,1.40
2023-02-27T04:37:35.826Z,1.45
2023-02-27T04:40:50.589Z,1.35
2023-02-27T04:43:56.634Z,1.30
2023-02-27T04:47:04.513Z,1.25
2023-02-27T04:50:15.378Z,1.48
2023-02-27T04:53:31.231Z,1.38
2023-02-27T04:56:46.531Z,1.80
2023-02-27T04:59:55.595Z,1.50
2023-02-27T05:03:18.739Z,1.83
2023-02-27T05:06:30.939Z,1.60
2023-02-27T05:10:34.620Z,1.70
2023-02-27T05:13:54.742Z,1.73
2023-02-27T05:17:16.298Z,1.40
2023-02-27T05:20:24.176Z,1.58
2023-02-27T05:24:06.422Z,1.30
2023-02-27T05:27:29.971Z,1.42
2023-02-27T05:30:50.257Z,1.58
2023-02-27T05:34:10.082Z,1.58
2023-02-27T05:37:32.280Z,1.60
2023-02-27T05:40:49.827Z,1.70
2023-02-27T05:44:04.831Z,1.63
2023-02-27T05:47:16.240Z,1.60
2023-02-27T05:50:33.124Z,1.70
2023-02-27T05:53:46.066Z,1.70
2023-02-27T05:56:54.685Z,1.55
2023-02-27T06:00:19.556Z,1.80
2023-02-27T06:03:27.106Z,1.60
2023-02-27T06:06:31.793Z,1.88
2023-02-27T06:09:36.850Z,1.70
2023-02-27T06:12:41.933Z,1.50
2023-02-27T06:15:46.721Z,1.55
2023-02-27T06:18:51.054Z,1.50
2023-02-27T06:21:56.020Z,1.45
2023-02-27T06:25:00.640Z,1.63
2023-02-27T06:28:05.937Z,1.73
2023-02-27T06:31:10.401Z,1.50
2023-02-27T06:34:15.139Z,2.13
2023-02-27T06:37:20.598Z,1.60
2023-02-27T06:40:25.971Z,1.83
2023-02-27T06:43:34.611Z,1.60
2023-02-27T06:46:39.267Z,1.45
2023-02-27T06:49:44.327Z,1.55
2023-02-27T06:52:48.465Z,1.65
2023-02-27T06:55:52.877Z,1.65
2023-02-27T06:58:59.489Z,1.60
2023-02-27T07:02:04.154Z,1.67
2023-02-27T07:05:11.534Z,1.85
2023-02-27T07:08:17.529Z,1.95
2023-02-27T07:11:22.332Z,1.63
2023-02-27T07:14:29.574Z,1.50
2023-02-27T07:17:34.741Z,1.73
2023-02-27T07:20:40.145Z,1.70
2023-02-27T07:23:44.844Z,1.92
2023-02-27T07:26:49.304Z,1.75
2023-02-27T07:29:54.065Z,2.00
2023-02-27T07:32:58.806Z,1.80
2023-02-27T07:36:03.764Z,1.77
2023-02-27T07:39:10.558Z,1.70
2023-02-27T07:42:15.366Z,1.50
2023-02-27T07:45:19.817Z,1.30
2023-02-27T07:48:24.571Z,1.80
2023-02-27T07:51:29.584Z,1.60
2023-02-27T07:54:35.678Z,1.50
2023-02-27T07:57:41.091Z,1.67
2023-02-27T08:00:45.640Z,1.73
2023-02-27T08:03:49.923Z,1.50
2023-02-27T08:06:54.527Z,2.13
2023-02-27T08:09:59.146Z,1.50
2023-02-27T08:13:03.767Z,1.60
2023-02-27T08:16:08.934Z,1.50
2023-02-27T08:19:14.928Z,1.40
2023-02-27T08:22:19.151Z,1.42
2023-02-27T08:25:23.510Z,1.15
2023-02-27T08:28:28.607Z,1.40
2023-02-27T08:31:33.692Z,1.88
2023-02-27T08:34:38.250Z,1.35
2023-02-27T08:37:43.096Z,1.20
2023-02-27T08:40:47.268Z,1.20
2023-02-27T08:43:51.750Z,1.15
2023-02-27T08:46:56.120Z,1.30
2023-02-27T08:50:00.931Z,1.33
2023-02-27T08:53:05.496Z,1.17
2023-02-27T08:56:09.981Z,1.30
2023-02-27T08:59:15.827Z,1.23
2023-02-27T09:02:23.617Z,1.20
2023-02-27T09:05:29.157Z,1.10
2023-02-27T09:08:33.731Z,1.10
2023-02-27T09:11:38.957Z,0.98
2023-02-27T09:14:43.255Z,1.05
2023-02-27T09:17:47.652Z,1.10
2023-02-27T09:20:52.539Z,1.20
2023-02-27T09:24:02.601Z,1.00
2023-02-27T09:27:12.064Z,1.00
2023-02-27T09:30:16.563Z,0.95
2023-02-27T09:33:21.694Z,1.20
2023-02-27T09:36:26.459Z,0.98
2023-02-27T09:39:31.357Z,1.05
2023-02-27T09:42:46.405Z,1.13
2023-02-27T09:45:56.039Z,1.40
2023-02-27T09:49:01.892Z,1.20
2023-02-27T09:52:06.282Z,1.42
2023-02-27T09:55:21.158Z,1.00
2023-02-27T09:59:06.993Z,1.30
2023-02-27T10:02:45.148Z,1.33
2023-02-27T10:06:19.210Z,0.98
2023-02-27T10:10:07.874Z,1.33
2023-02-27T10:13:25.625Z,1.23
2023-02-27T10:16:33.428Z,1.52
2023-02-27T10:19:38.975Z,0.85
2023-02-27T10:22:46.431Z,0.93
2023-02-27T10:25:52.212Z,1.15
2023-02-27T10:29:01.696Z,1.40
2023-02-27T10:32:24.835Z,1.10
2023-02-27T10:35:35.771Z,1.25
2023-02-27T10:39:00.624Z,1.02
2023-02-27T10:42:08.629Z,1.50
2023-02-27T10:45:16.722Z,1.52
2023-02-27T10:48:23.117Z,1.40
2023-02-27T10:51:31.403Z,0.80
2023-02-27T10:54:37.149Z,1.25
2023-02-27T10:57:43.357Z,0.82
2023-02-27T11:00:57.891Z,1.42
2023-02-27T11:10:14.386Z,1.00
2023-02-27T11:13:25.741Z,0.70
2023-02-27T11:16:50.373Z,1.02
2023-02-27T11:19:56.516Z,1.02
2023-02-27T11:23:18.382Z,1.27
2023-02-27T11:26:33.098Z,1.10
2023-02-27T11:29:37.644Z,1.00
2023-02-27T11:32:48.803Z,0.80
2023-02-27T11:35:57.139Z,0.98
2023-02-27T11:39:02.715Z,0.77
2023-02-27T11:42:34.167Z,0.88
2023-02-27T11:46:19.197Z,0.80
2023-02-27T11:49:48.022Z,0.90
2023-02-27T11:53:42.542Z,1.00
2023-02-27T11:57:08.965Z,0.93
2023-02-27T12:00:36.489Z,1.00
2023-02-27T12:03:50.130Z,1.35
2023-02-27T12:07:12.506Z,1.10
2023-02-27T12:11:07.727Z,0.73
2023-02-27T12:14:41.001Z,1.08
2023-02-27T12:17:59.304Z,1.00
2023-02-27T12:21:55.886Z,0.90
2023-02-27T12:25:08.296Z,1.40
2023-02-27T12:28:29.315Z,0.90
2023-02-27T12:31:37.132Z,1.00
2023-02-27T12:34:59.143Z,1.00
2023-02-27T12:38:05.719Z,1.50
2023-02-27T12:41:48.822Z,0.70
2023-02-27T12:45:17.478Z,1.00
2023-02-27T12:48:54.832Z,1.10
2023-02-27T12:52:42.723Z,1.00
2023-02-27T12:55:55.283Z,1.02
2023-02-27T12:59:06.706Z,0.95
2023-02-27T13:02:51.488Z,0.90
2023-02-27T13:06:06.614Z,1.30
2023-02-27T13:09:35.542Z,1.10
2023-02-27T13:12:54.847Z,1.30
2023-02-27T13:16:43.049Z,1.20
2023-02-27T13:19:59.727Z,1.60
2023-02-27T13:23:23.170Z,1.23
2023-02-27T13:26:38.623Z,1.25
2023-02-27T13:29:52.511Z,1.30
2023-02-27T13:33:20.065Z,1.10
2023-02-27T13:36:36.324Z,1.20
2023-02-27T13:39:47.147Z,1.30
2023-02-27T13:42:55.269Z,0.90
2023-02-27T13:46:26.821Z,1.00
2023-02-27T13:49:42.903Z,1.02
2023-02-27T13:52:48.176Z,1.20
2023-02-27T13:55:56.732Z,1.27
2023-02-27T13:59:32.195Z,1.38
2023-02-27T14:03:02.999Z,1.10
2023-02-27T14:06:11.588Z,1.15
2023-02-27T14:09:21.805Z,1.40
2023-02-27T14:12:45.826Z,1.25
2023-02-27T14:15:56.630Z,1.65
2023-02-27T14:19:01.969Z,1.55
2023-02-27T14:22:12.888Z,1.35
2023-02-27T14:25:32.667Z,1.35
2023-02-27T14:28:57.088Z,1.13
2023-02-27T14:32:08.076Z,1.00
2023-02-27T14:35:16.024Z,1.00
2023-02-27T14:38:21.342Z,1.55
2023-02-27T14:41:58.066Z,1.30
2023-02-27T14:45:04.426Z,1.23
2023-02-27T14:48:10.581Z,1.42
2023-02-27T14:51:15.622Z,1.10
2023-02-27T14:54:27.574Z,1.65
2023-02-27T14:57:32.102Z,1.27
2023-02-27T15:00:44.740Z,1.38
2023-02-27T15:03:54.502Z,1.27
2023-02-27T15:07:00.445Z,1.95
2023-02-27T15:10:09.259Z,2.10
2023-02-27T15:13:28.800Z,1.65
2023-02-27T15:16:37.865Z,1.73
2023-02-27T15:19:55.538Z,1.63
2023-02-27T15:23:20.059Z,1.92
2023-02-27T15:26:26.253Z,1.60
2023-02-27T15:29:49.157Z,1.60
2023-02-27T15:32:55.913Z,1.63
2023-02-27T15:36:01.512Z,1.73
2023-02-27T15:39:20.591Z,1.48
2023-02-27T15:42:30.564Z,1.67
2023-02-27T15:45:37.240Z,1.17
2023-02-27T15:48:42.503Z,1.48
2023-02-27T15:52:09.801Z,1.40
2023-02-27T15:55:21.778Z,1.00
2023-02-27T15:58:35.940Z,1.40
2023-02-27T16:01:40.894Z,1.63
2023-02-27T16:04:46.511Z,1.38
2023-02-27T16:07:51.654Z,1.92
2023-02-27T16:10:56.489Z,1.40
2023-02-27T16:14:02.888Z,1.17
2023-02-27T16:17:30.650Z,1.10
2023-02-27T16:20:59.127Z,1.60
2023-02-27T16:24:32.077Z,1.30
2023-02-27T16:27:37.176Z,1.35
2023-02-27T16:30:42.755Z,1.58
2023-02-27T16:33:47.717Z,1.70
2023-02-27T16:36:58.899Z,1.67
2023-02-27T16:40:14.246Z,1.38
2023-02-27T16:43:18.580Z,1.55
2023-02-27T16:46:23.777Z,1.33
2023-02-27T16:49:33.382Z,1.40
2023-02-27T16:52:38.200Z,1.45
2023-02-27T16:55:43.831Z,1.48
2023-02-27T16:58:49.532Z,1.52
2023-02-27T17:01:54.982Z,1.38
2023-02-27T17:04:59.672Z,1.30
2023-02-27T17:08:04.631Z,1.60
2023-02-27T17:11:10.569Z,1.17
2023-02-27T17:14:15.300Z,1.40
2023-02-27T17:17:20.196Z,1.17
2023-02-27T17:20:27.958Z,1.25
2023-02-27T17:23:32.736Z,1.33
2023-02-27T17:26:37.447Z,1.35
2023-02-27T17:29:42.205Z,1.30
2023-02-27T17:32:46.881Z,1.63
2023-02-27T17:35:53.042Z,1.50
2023-02-27T17:39:00.786Z,1.20
2023-02-27T17:42:05.568Z,1.20
2023-02-27T17:45:11.544Z,1.02
2023-02-27T17:48:16.171Z,1.30
2023-02-27T17:51:21.110Z,1.17
2023-02-27T17:54:26.428Z,1.17
2023-02-27T17:57:31.022Z,1.15
2023-02-27T18:00:36.089Z,1.00
2023-02-27T18:03:41.330Z,1.40
2023-02-27T18:06:46.110Z,1.45
2023-02-27T18:09:50.704Z,1.30
2023-02-27T18:12:55.424Z,1.38
2023-02-27T18:16:00.185Z,1.20
2023-02-27T18:19:06.505Z,1.23
2023-02-27T18:22:12.003Z,1.20
2023-02-27T18:25:16.896Z,1.33
2023-02-27T18:28:21.793Z,1.40
2023-02-27T18:31:36.610Z,1.50
2023-02-27T18:34:43.421Z,1.27
2023-02-27T18:37:48.367Z,1.38
2023-02-27T18:40:53.105Z,1.60
2023-02-27T18:43:58.712Z,1.55
2023-02-27T18:47:03.158Z,1.48
2023-02-27T18:50:08.165Z,1.27
2023-02-27T18:53:12.741Z,1.35
2023-02-27T18:56:22.911Z,1.17
2023-02-27T18:59:28.148Z,1.30
2023-02-27T19:02:33.211Z,1.25
2023-02-27T19:05:42.467Z,2.22
2023-02-27T19:08:47.670Z,1.10
2023-02-27T19:11:52.178Z,1.20
2023-02-27T19:14:56.643Z,1.40
2023-02-27T19:18:01.721Z,1.02
2023-02-27T19:21:06.515Z,1.35
2023-02-27T19:24:13.329Z,1.30
2023-02-27T19:27:17.796Z,1.70
2023-02-27T19:30:23.321Z,1.08
2023-02-27T19:33:27.959Z,1.55
2023-02-27T19:36:34.580Z,2.00
2023-02-27T19:39:39.343Z,1.38
2023-02-27T19:42:44.705Z,1.58
2023-02-27T19:45:49.594Z,1.40
2023-02-27T19:48:59.531Z,1.60
2023-02-27T19:52:04.362Z,1.48
2023-02-27T19:55:09.858Z,1.40
2023-02-27T19:58:14.616Z,1.42
2023-02-27T20:01:30.938Z,2.13
2023-02-27T20:04:35.587Z,1.60
2023-02-27T20:07:42.279Z,1.58
2023-02-27T20:10:56.024Z,1.95
2023-02-27T20:14:00.823Z,1.80
2023-02-27T20:17:05.589Z,1.58
2023-02-27T20:20:11.245Z,1.40
2023-02-27T20:23:17.394Z,1.60
2023-02-27T20:26:44.097Z,1.70
2023-02-27T20:29:57.280Z,1.42
2023-02-27T20:33:02.087Z,1.48
2023-02-27T20:36:09.683Z,1.70
2023-02-27T20:39:14.526Z,1.58
2023-02-27T20:42:19.489Z,1.80
2023-02-27T20:45:24.650Z,1.77
2023-02-27T20:48:29.032Z,2.20
2023-02-27T20:51:38.240Z,2.00
2023-02-27T20:54:42.705Z,1.50
2023-02-27T20:57:46.991Z,2.08
2023-02-27T21:00:52.368Z,1.70
2023-02-27T21:03:58.662Z,1.65
2023-02-27T21:07:03.318Z,2.08
2023-02-27T21:10:08.897Z,1.60
2023-02-27T21:13:13.782Z,2.28
2023-02-27T21:16:19.144Z,2.10
2023-02-27T21:19:24.873Z,2.10
2023-02-27T21:22:29.698Z,1.90
2023-02-27T21:25:35.235Z,1.80
2023-02-27T21:28:42.761Z,1.80
2023-02-27T21:31:49.340Z,2.13
2023-02-27T21:34:54.312Z,1.90
2023-02-27T21:37:59.528Z,1.77
2023-02-27T21:41:11.700Z,1.92
2023-02-27T21:44:21.299Z,1.77
2023-02-27T21:47:25.554Z,2.13
2023-02-27T21:50:31.714Z,2.10
2023-02-27T21:53:37.061Z,2.20
2023-02-27T21:56:43.072Z,2.20
2023-02-27T21:59:48.242Z,1.98
2023-02-27T22:02:53.052Z,2.28
2023-02-27T22:05:57.533Z,2.15
2023-02-27T22:09:05.048Z,2.35
2023-02-27T22:12:10.458Z,2.00
2023-02-27T22:15:15.413Z,2.30
2023-02-27T22:18:20.900Z,2.25
2023-02-27T22:21:28.019Z,2.28
2023-02-27T22:24:34.355Z,2.03
2023-02-27T22:27:38.879Z,1.95
2023-02-27T22:30:46.019Z,2.28
2023-02-27T22:33:54.446Z,2.50
2023-02-27T22:36:59.322Z,2.50
2023-02-27T22:40:06.229Z,2.30
2023-02-27T22:43:11.763Z,2.67
2023-02-27T22:46:40.062Z,2.33
2023-02-27T22:49:45.147Z,2.40
2023-02-27T22:52:51.657Z,2.33
2023-02-27T22:56:22.154Z,2.00
2023-02-27T22:59:27.831Z,1.90
2023-02-27T23:02:34.392Z,2.28
2023-02-27T23:05:49.898Z,2.13
2023-02-27T23:08:56.716Z,2.20
2023-02-27T23:12:04.887Z,2.00
2023-02-27T23:15:11.007Z,2.00
2023-02-27T23:18:16.024Z,2.28
2023-02-27T23:21:29.638Z,2.20
2023-02-27T23:24:34.449Z,2.42
2023-02-27T23:27:38.857Z,2.15
2023-02-27T23:30:43.323Z,2.17
2023-02-27T23:33:47.998Z,2.22
2023-02-27T23:36:52.723Z,2.10
2023-02-27T23:39:57.536Z,2.90
2023-02-27T23:43:20.784Z,2.35
2023-02-27T23:46:30.220Z,2.20
2023-02-27T23:49:34.498Z,2.55
2023-02-27T23:52:39.248Z,2.33
2023-02-27T23:55:44.086Z,2.22
2023-02-27T23:59:01.267Z,2.60
